Allison, Texas
Current Conditions -  °F | °C
As of 7:15 PM on Thursday 18 Dec 2014 (Local Time) from KHHF Reporting Station
Drizzle Drizzle  
Wind Chill: 37°   Ceiling: 1600
Heat Index: 40°   Visibility: 4mi
Dew Point: 39°   Wind: 5mph
Humidity: 97%   Direction: 90°E
Pressure: 30.16"   Gusts: NA
Location:  35.61°N, 100.1°W
Report Text: KHHF 190115Z AUTO 09004KT 4SM -DZ SCT007 OVC016 05/04 A3016 RMK AO2 T00450040
Loading
Personal Weather Stations






























Interactive Weather Map New forecast layout! Learn more

10-Day Weather Forecast

Advertisements
Track Severe Weather on mobile